createdAt,value
2023-02-03T00:02:25.956Z,8.70
2023-02-03T00:04:53.401Z,8.60
2023-02-03T00:07:20.949Z,8.60
2023-02-03T00:09:48.517Z,9.30
2023-02-03T00:12:15.950Z,8.60
2023-02-03T00:14:43.385Z,8.80
2023-02-03T00:17:10.775Z,9.00
2023-02-03T00:19:38.179Z,8.90
2023-02-03T00:22:05.627Z,8.50
2023-02-03T00:24:33.050Z,8.60
2023-02-03T00:27:00.452Z,10.10
2023-02-03T00:29:28.116Z,8.70
2023-02-03T00:31:55.989Z,8.80
2023-02-03T00:34:23.479Z,8.80
2023-02-03T00:36:51.216Z,8.90
2023-02-03T00:39:18.679Z,9.00
2023-02-03T00:41:47.308Z,8.80
2023-02-03T00:44:15.364Z,9.10
2023-02-03T00:46:42.765Z,9.10
2023-02-03T00:49:10.051Z,9.20
2023-02-03T00:51:37.571Z,9.70
2023-02-03T00:54:05.034Z,9.60
2023-02-03T00:56:32.534Z,9.20
2023-02-03T00:59:00.282Z,9.30
2023-02-03T01:01:27.879Z,9.30
2023-02-03T01:03:56.348Z,9.30
2023-02-03T01:06:24.154Z,9.40
2023-02-03T01:08:52.456Z,9.90
2023-02-03T01:11:23.000Z,9.40
2023-02-03T01:13:52.087Z,9.30
2023-02-03T01:16:21.117Z,9.40
2023-02-03T01:18:48.917Z,9.60
2023-02-03T01:21:19.128Z,9.40
2023-02-03T01:23:47.114Z,9.40
2023-02-03T01:26:17.110Z,9.40
2023-02-03T01:28:44.961Z,9.50
2023-02-03T01:31:18.473Z,9.50
2023-02-03T01:33:48.524Z,9.60
2023-02-03T01:36:17.280Z,9.90
2023-02-03T01:38:45.562Z,9.50
2023-02-03T01:41:16.567Z,9.60
2023-02-03T01:43:51.570Z,9.50
2023-02-03T01:46:30.128Z,9.60
2023-02-03T01:49:12.210Z,9.60
2023-02-03T01:51:42.315Z,10.10
2023-02-03T01:54:17.416Z,9.60
2023-02-03T01:56:51.466Z,9.50
2023-02-03T01:59:21.300Z,9.70
2023-02-03T02:01:51.933Z,9.90
2023-02-03T02:04:20.711Z,9.70
2023-02-03T02:06:48.828Z,10.00
2023-02-03T02:09:16.342Z,9.70
2023-02-03T02:11:43.811Z,9.70
2023-02-03T02:14:11.262Z,9.70
2023-02-03T02:16:49.535Z,10.50
2023-02-03T02:19:30.520Z,9.70
2023-02-03T02:22:20.753Z,9.70
2023-02-03T02:25:08.983Z,9.70
2023-02-03T02:28:08.050Z,9.70
2023-02-03T02:30:47.507Z,9.70
2023-02-03T02:33:46.428Z,9.70
2023-02-03T02:36:33.566Z,9.70
2023-02-03T02:39:09.888Z,9.70
2023-02-03T02:41:37.838Z,9.70
2023-02-03T02:44:22.127Z,10.00
2023-02-03T02:46:53.877Z,9.60
2023-02-03T02:49:30.540Z,9.70
2023-02-03T02:52:01.324Z,9.70
2023-02-03T02:54:31.393Z,9.70
2023-02-03T02:57:03.270Z,9.60
2023-02-03T02:59:31.672Z,9.30
2023-02-03T03:01:59.318Z,9.40
2023-02-03T03:04:30.103Z,10.40
2023-02-03T03:07:36.445Z,10.60
2023-02-03T03:10:11.021Z,9.70
2023-02-03T03:12:45.416Z,9.60
2023-02-03T03:15:23.020Z,10.10
2023-02-03T03:18:16.451Z,9.60
2023-02-03T03:20:46.359Z,9.30
2023-02-03T03:23:43.643Z,9.60
2023-02-03T03:26:35.694Z,9.60
2023-02-03T03:29:20.737Z,9.60
2023-02-03T03:31:48.888Z,9.50
2023-02-03T03:34:17.814Z,9.50
2023-02-03T03:36:51.124Z,9.50
2023-02-03T03:39:36.359Z,9.40
2023-02-03T03:42:18.123Z,9.40
2023-02-03T03:44:57.040Z,9.40
2023-02-03T03:47:31.314Z,9.30
2023-02-03T03:50:01.591Z,10.10
2023-02-03T03:52:33.128Z,10.70
2023-02-03T03:55:03.457Z,10.40
2023-02-03T03:57:36.433Z,9.10
2023-02-03T04:00:09.588Z,9.40
2023-02-03T04:02:42.781Z,9.40
2023-02-03T04:05:12.042Z,9.30
2023-02-03T04:07:42.448Z,9.30
2023-02-03T04:10:36.946Z,9.30
2023-02-03T04:13:05.511Z,9.30
2023-02-03T04:15:33.874Z,9.30
2023-02-03T04:18:01.819Z,9.20
2023-02-03T04:20:30.886Z,9.20
2023-02-03T04:22:58.946Z,10.00
2023-02-03T04:25:26.913Z,9.50
2023-02-03T04:27:55.306Z,8.90
2023-02-03T04:30:23.498Z,8.90
2023-02-03T04:32:50.901Z,8.80
2023-02-03T04:35:19.059Z,8.80
2023-02-03T04:37:46.776Z,8.70
2023-02-03T04:40:14.659Z,8.70
2023-02-03T04:42:42.268Z,8.70
2023-02-03T04:45:11.223Z,9.10
2023-02-03T04:47:39.744Z,9.90
2023-02-03T04:50:07.733Z,8.70
2023-02-03T04:52:35.267Z,8.70
2023-02-03T04:55:03.973Z,8.70
2023-02-03T04:57:31.645Z,8.60
2023-02-03T04:59:59.166Z,8.70
2023-02-03T05:02:26.808Z,8.70
2023-02-03T05:04:54.387Z,8.70
2023-02-03T05:07:21.852Z,8.50
2023-02-03T05:09:49.322Z,9.30
2023-02-03T05:12:16.698Z,8.60
2023-02-03T05:14:44.105Z,9.20
2023-02-03T05:17:11.501Z,9.00
2023-02-03T05:19:39.111Z,9.00
2023-02-03T05:22:06.501Z,9.00
2023-02-03T05:24:33.956Z,9.10
2023-02-03T05:27:01.610Z,9.20
2023-02-03T05:29:29.087Z,9.10
2023-02-03T05:31:56.564Z,9.20
2023-02-03T05:34:24.017Z,9.50
2023-02-03T05:36:51.464Z,9.10
2023-02-03T05:39:18.966Z,9.80
2023-02-03T05:41:52.343Z,9.50
2023-02-03T05:44:25.042Z,9.40
2023-02-03T05:46:54.702Z,8.80
2023-02-03T05:49:23.231Z,8.70
2023-02-03T05:51:52.627Z,8.80
2023-02-03T05:54:20.121Z,9.40
2023-02-03T05:56:47.848Z,8.70
2023-02-03T05:59:15.397Z,8.40
2023-02-03T06:01:42.825Z,8.60
2023-02-03T06:04:10.425Z,10.10
2023-02-03T06:06:37.892Z,8.60
2023-02-03T06:09:07.534Z,9.90
2023-02-03T06:11:35.935Z,8.70
2023-02-03T06:14:04.355Z,8.60
2023-02-03T06:16:32.077Z,8.60
2023-02-03T06:19:00.933Z,8.60
2023-02-03T06:21:28.995Z,8.50
2023-02-03T06:23:56.670Z,8.60
2023-02-03T06:26:25.205Z,8.70
2023-02-03T06:28:52.826Z,8.20
2023-02-03T06:31:20.359Z,8.60
2023-02-03T06:33:47.948Z,8.60
2023-02-03T06:36:15.466Z,8.60
2023-02-03T06:38:42.933Z,8.50
2023-02-03T06:41:10.379Z,8.40
2023-02-03T06:43:37.822Z,9.40
2023-02-03T06:46:05.349Z,8.30
2023-02-03T06:48:32.851Z,9.40
2023-02-03T06:51:00.352Z,8.60
2023-02-03T06:53:27.861Z,8.60
2023-02-03T06:55:55.472Z,8.60
2023-02-03T06:58:22.946Z,8.30
2023-02-03T07:00:51.345Z,8.60
2023-02-03T07:03:19.437Z,10.10
2023-02-03T07:05:46.869Z,8.60
2023-02-03T07:08:14.333Z,8.60
2023-02-03T07:10:41.890Z,8.60
2023-02-03T07:13:09.483Z,8.60
2023-02-03T07:15:37.139Z,9.30
2023-02-03T07:18:04.624Z,8.70
2023-02-03T07:20:32.962Z,8.70
2023-02-03T07:23:00.465Z,9.00
2023-02-03T07:25:28.038Z,8.70
2023-02-03T07:27:55.587Z,8.70
2023-02-03T07:30:23.284Z,8.70
2023-02-03T07:32:52.128Z,8.20
2023-02-03T07:35:20.375Z,8.80
2023-02-03T07:37:47.748Z,8.60
2023-02-03T07:40:15.861Z,7.90
2023-02-03T07:42:47.878Z,8.60
2023-02-03T07:45:17.312Z,9.30
2023-02-03T07:47:44.971Z,8.60
2023-02-03T07:50:12.807Z,8.90
2023-02-03T07:52:40.596Z,8.80
2023-02-03T07:55:09.027Z,9.60
2023-02-03T07:57:37.267Z,8.60
2023-02-03T08:00:04.890Z,8.60
2023-02-03T08:02:40.328Z,8.60
2023-02-03T08:05:08.077Z,9.80
2023-02-03T08:07:35.821Z,8.60
2023-02-03T08:10:04.098Z,9.40
2023-02-03T08:12:31.770Z,8.60
2023-02-03T08:14:59.297Z,8.60
2023-02-03T08:17:27.046Z,8.60
2023-02-03T08:19:54.476Z,8.70
2023-02-03T08:22:21.968Z,10.20
2023-02-03T08:24:49.721Z,8.60
2023-02-03T08:27:20.383Z,9.80
2023-02-03T08:29:48.252Z,8.70
2023-02-03T08:32:18.269Z,8.80
2023-02-03T08:34:45.984Z,10.30
2023-02-03T08:37:15.189Z,9.30
2023-02-03T08:39:43.017Z,8.90
2023-02-03T08:42:11.129Z,8.90
2023-02-03T08:44:41.419Z,9.10
2023-02-03T08:47:18.043Z,8.90
2023-02-03T08:49:45.728Z,10.70
2023-02-03T08:52:13.873Z,10.40
2023-02-03T08:54:42.112Z,9.70
2023-02-03T08:57:09.740Z,9.10
2023-02-03T08:59:42.373Z,9.10
2023-02-03T09:02:15.937Z,9.60
2023-02-03T09:04:44.849Z,9.60
2023-02-03T09:07:13.362Z,9.70
2023-02-03T09:09:40.939Z,10.70
2023-02-03T09:12:09.091Z,9.50
2023-02-03T09:14:36.682Z,9.30
2023-02-03T09:17:05.264Z,9.40
2023-02-03T09:19:35.351Z,9.40
2023-02-03T09:22:03.762Z,9.50
2023-02-03T09:24:31.445Z,9.50
2023-02-03T09:27:01.077Z,9.60
2023-02-03T09:29:28.839Z,9.60
2023-02-03T09:31:56.351Z,9.60
2023-02-03T09:34:23.853Z,10.60
2023-02-03T09:36:51.476Z,9.70
2023-02-03T09:39:18.984Z,9.70
2023-02-03T09:42:01.824Z,9.80
2023-02-03T09:44:54.529Z,9.80
2023-02-03T09:47:27.205Z,9.80
2023-02-03T09:50:01.343Z,9.90
2023-02-03T09:52:36.054Z,10.80
2023-02-03T09:55:29.617Z,10.40
2023-02-03T09:58:05.679Z,10.10
2023-02-03T10:00:39.905Z,10.10
2023-02-03T10:03:35.056Z,10.10
2023-02-03T10:06:21.308Z,10.10
2023-02-03T10:09:20.134Z,10.20
2023-02-03T10:12:04.825Z,10.20
2023-02-03T10:15:07.304Z,10.80
2023-02-03T10:17:41.213Z,10.30
2023-02-03T10:20:35.850Z,10.30
2023-02-03T10:23:11.215Z,10.30
2023-02-03T10:25:57.439Z,10.30
2023-02-03T10:28:31.835Z,10.30
2023-02-03T10:31:02.871Z,10.40
2023-02-03T10:33:34.447Z,10.40
2023-02-03T10:36:10.008Z,10.40
2023-02-03T10:38:37.392Z,10.40
2023-02-03T10:41:05.132Z,10.50
2023-02-03T10:43:51.384Z,10.60
2023-02-03T10:46:28.593Z,10.50
2023-02-03T10:48:56.703Z,10.50
2023-02-03T10:51:33.137Z,10.50
2023-02-03T10:54:01.123Z,10.40
2023-02-03T10:56:46.490Z,10.50
2023-02-03T10:59:29.541Z,10.50
2023-02-03T11:01:57.375Z,10.60
2023-02-03T11:04:32.952Z,10.60
2023-02-03T11:07:03.140Z,11.30
2023-02-03T11:09:40.691Z,10.50
2023-02-03T11:12:16.853Z,10.80
2023-02-03T11:14:46.943Z,10.90
2023-02-03T11:17:23.807Z,11.00
2023-02-03T11:19:53.909Z,11.10
2023-02-03T11:22:31.097Z,11.40
2023-02-03T11:25:00.101Z,11.20
2023-02-03T11:27:31.617Z,11.30
2023-02-03T11:30:19.877Z,11.80
2023-02-03T11:32:49.043Z,11.40
2023-02-03T11:35:24.600Z,11.60
2023-02-03T11:37:57.162Z,11.60
2023-02-03T11:40:33.864Z,11.50
2023-02-03T11:43:14.455Z,11.50
2023-02-03T11:45:52.085Z,11.40
2023-02-03T11:48:45.409Z,11.60
2023-02-03T11:51:21.801Z,11.60
2023-02-03T11:54:17.117Z,11.60
2023-02-03T11:57:10.411Z,11.60
2023-02-03T12:00:01.133Z,11.60
2023-02-03T12:03:02.144Z,11.70
2023-02-03T12:05:57.073Z,11.70
2023-02-03T12:09:02.232Z,11.70
2023-02-03T12:11:55.518Z,11.70
2023-02-03T12:14:31.729Z,11.70
2023-02-03T12:17:00.286Z,11.70
2023-02-03T12:20:05.671Z,11.60
2023-02-03T12:22:41.638Z,11.80
2023-02-03T12:25:44.352Z,11.90
2023-02-03T12:28:38.919Z,12.00
2023-02-03T12:31:24.513Z,12.10
2023-02-03T12:33:58.830Z,12.20
2023-02-03T12:36:41.682Z,12.30
2023-02-03T12:39:21.672Z,12.30
2023-02-03T12:41:58.389Z,12.20
2023-02-03T12:45:00.226Z,12.40
2023-02-03T12:48:03.213Z,12.40
2023-02-03T12:50:42.182Z,12.40
2023-02-03T12:53:36.610Z,12.40
2023-02-03T12:56:10.836Z,12.50
2023-02-03T12:58:57.087Z,12.50
2023-02-03T13:01:42.617Z,12.50
2023-02-03T13:04:19.908Z,12.40
2023-02-03T13:07:19.663Z,12.50
2023-02-03T13:10:03.579Z,12.40
2023-02-03T13:12:41.296Z,12.40
2023-02-03T13:15:20.845Z,12.30
2023-02-03T13:18:10.862Z,12.40
2023-02-03T13:20:38.567Z,12.30
2023-02-03T13:23:14.697Z,12.20
2023-02-03T13:25:54.077Z,12.40
2023-02-03T13:28:47.389Z,12.50
2023-02-03T13:31:36.736Z,12.80
2023-02-03T13:34:22.369Z,12.60
2023-02-03T13:37:34.630Z,12.70
2023-02-03T13:40:20.917Z,12.80
2023-02-03T13:42:58.372Z,12.80
2023-02-03T13:45:32.680Z,12.90
2023-02-03T13:48:22.180Z,12.90
2023-02-03T13:51:19.862Z,12.90
2023-02-03T13:53:48.901Z,13.00
2023-02-03T13:56:28.620Z,13.00
2023-02-03T13:59:12.916Z,13.00
2023-02-03T14:01:41.730Z,13.00
2023-02-03T14:04:29.735Z,13.00
2023-02-03T14:07:03.778Z,12.90
2023-02-03T14:09:31.476Z,12.90
2023-02-03T14:12:17.908Z,13.30
2023-02-03T14:14:52.064Z,12.90
2023-02-03T14:17:34.745Z,13.10
2023-02-03T14:20:05.307Z,13.10
2023-02-03T14:22:33.009Z,13.20
2023-02-03T14:25:06.554Z,13.30
2023-02-03T14:27:36.753Z,13.20
2023-02-03T14:30:19.300Z,13.20
2023-02-03T14:33:03.170Z,13.10
2023-02-03T14:35:34.580Z,14.20
2023-02-03T14:38:14.585Z,13.10
2023-02-03T14:40:50.784Z,12.70
2023-02-03T14:43:56.178Z,13.10
2023-02-03T14:46:41.291Z,13.00
2023-02-03T14:49:36.972Z,13.00
2023-02-03T14:52:15.300Z,12.90
2023-02-03T14:54:58.419Z,12.80
2023-02-03T14:57:53.368Z,13.30
2023-02-03T15:00:21.714Z,12.80
2023-02-03T15:03:10.189Z,12.70
2023-02-03T15:05:47.202Z,12.70
2023-02-03T15:08:40.798Z,12.60
2023-02-03T15:11:33.611Z,12.50
2023-02-03T15:14:25.804Z,12.40
2023-02-03T15:17:01.905Z,12.30
2023-02-03T15:19:39.586Z,12.30
2023-02-03T15:22:30.399Z,12.20
2023-02-03T15:25:04.369Z,12.20
2023-02-03T15:27:33.975Z,12.10
2023-02-03T15:30:16.356Z,12.10
2023-02-03T15:32:54.781Z,12.00
2023-02-03T15:35:23.379Z,12.20
2023-02-03T15:38:04.592Z,11.70
2023-02-03T15:40:43.990Z,11.80
2023-02-03T15:43:19.400Z,11.70
2023-02-03T15:45:59.428Z,11.60
2023-02-03T15:48:29.587Z,11.70
2023-02-03T15:51:03.448Z,11.70
2023-02-03T15:53:46.826Z,11.80
2023-02-03T15:56:28.681Z,11.60
2023-02-03T15:58:58.763Z,11.80
2023-02-03T16:01:28.066Z,11.70
2023-02-03T16:03:57.027Z,11.50
2023-02-03T16:06:38.391Z,11.80
2023-02-03T16:09:07.476Z,11.40
2023-02-03T16:11:39.930Z,11.90
2023-02-03T16:14:32.628Z,11.30
2023-02-03T16:17:05.521Z,11.30
2023-02-03T16:19:40.671Z,11.30
2023-02-03T16:22:32.314Z,11.20
2023-02-03T16:25:19.953Z,11.20
2023-02-03T16:28:17.418Z,11.10
2023-02-03T16:31:15.663Z,11.20
2023-02-03T16:34:06.846Z,11.00
2023-02-03T16:37:00.851Z,11.10
2023-02-03T16:39:49.068Z,10.90
2023-02-03T16:42:40.131Z,11.70
2023-02-03T16:45:34.257Z,11.20
2023-02-03T16:48:21.991Z,10.70
2023-02-03T16:50:59.612Z,10.70
2023-02-03T16:53:40.880Z,10.70
2023-02-03T16:56:12.108Z,10.40
2023-02-03T16:58:42.981Z,11.40
2023-02-03T17:01:17.788Z,10.50
2023-02-03T17:03:45.535Z,9.10
2023-02-03T17:06:18.640Z,10.40
2023-02-03T17:08:48.390Z,10.40
2023-02-03T17:11:26.978Z,10.40
2023-02-03T17:13:54.647Z,10.80
2023-02-03T17:16:25.168Z,10.70
2023-02-03T17:18:55.003Z,10.20
2023-02-03T17:21:25.342Z,10.70
2023-02-03T17:23:53.618Z,10.50
2023-02-03T17:26:21.269Z,10.20
2023-02-03T17:28:48.940Z,10.00
2023-02-03T17:31:19.291Z,11.30
2023-02-03T17:33:51.651Z,10.00
2023-02-03T17:36:21.668Z,9.90
2023-02-03T17:55:32.102Z,9.70
2023-02-03T17:58:02.496Z,9.60
2023-02-03T18:00:30.442Z,9.60
2023-02-03T18:02:58.551Z,9.50
2023-02-03T18:05:26.221Z,10.20
2023-02-03T18:07:53.742Z,9.40
2023-02-03T18:10:21.409Z,9.40
2023-02-03T18:12:49.110Z,11.20
2023-02-03T18:15:16.743Z,9.50
2023-02-03T18:17:44.338Z,9.40
2023-02-03T18:20:12.447Z,9.30
2023-02-03T18:22:39.960Z,9.40
2023-02-03T18:25:19.703Z,9.30
2023-02-03T18:27:47.250Z,9.60
2023-02-03T18:30:15.214Z,10.00
2023-02-03T18:32:43.985Z,9.50
2023-02-03T18:35:18.153Z,9.50
2023-02-03T18:37:45.775Z,9.50
2023-02-03T18:40:13.402Z,9.60
2023-02-03T18:42:41.061Z,9.50
2023-02-03T18:45:10.433Z,9.60
2023-02-03T18:47:37.896Z,9.60
2023-02-03T18:50:05.649Z,10.10
2023-02-03T18:52:33.160Z,9.60
2023-02-03T18:55:03.053Z,9.60
2023-02-03T18:57:30.707Z,10.40
2023-02-03T18:59:58.228Z,9.50
2023-02-03T19:02:25.843Z,9.50
2023-02-03T19:04:53.379Z,9.50
2023-02-03T19:07:21.425Z,9.70
2023-02-03T19:09:49.036Z,9.60
2023-02-03T19:12:16.478Z,9.90
2023-02-03T19:14:43.992Z,9.70
2023-02-03T19:17:12.383Z,10.50
2023-02-03T19:19:39.821Z,9.90
2023-02-03T19:22:07.238Z,10.50
2023-02-03T19:24:34.789Z,10.50
2023-02-03T19:27:02.538Z,10.00
2023-02-03T19:29:29.992Z,12.20
2023-02-03T19:31:57.647Z,10.10
2023-02-03T19:34:26.948Z,10.20
2023-02-03T19:36:56.023Z,10.10
2023-02-03T19:39:23.413Z,10.60
2023-02-03T19:41:53.247Z,9.90
2023-02-03T19:44:20.638Z,10.40
2023-02-03T19:46:48.266Z,10.10
2023-02-03T19:49:15.755Z,10.40
2023-02-03T19:51:44.312Z,10.00
2023-02-03T19:54:15.925Z,9.90
2023-02-03T19:56:44.205Z,9.90
2023-02-03T19:59:11.704Z,10.60
2023-02-03T20:01:39.584Z,10.40
2023-02-03T20:04:07.628Z,9.60
2023-02-03T20:06:35.480Z,9.90
2023-02-03T20:09:04.192Z,9.40
2023-02-03T20:11:31.666Z,9.20
2023-02-03T20:13:59.098Z,9.10
2023-02-03T20:16:26.582Z,9.30
2023-02-03T20:18:54.358Z,8.90
2023-02-03T20:21:22.258Z,9.30
2023-02-03T20:23:49.682Z,8.70
2023-02-03T20:26:17.610Z,8.00
2023-02-03T20:28:45.901Z,8.90
2023-02-03T20:31:14.013Z,8.10
2023-02-03T20:33:41.364Z,8.70
2023-02-03T20:36:10.401Z,8.80
2023-02-03T20:38:38.924Z,8.80
2023-02-03T20:41:11.129Z,10.10
2023-02-03T20:43:39.197Z,10.30
2023-02-03T20:46:12.283Z,10.20
2023-02-03T20:48:39.786Z,8.60
2023-02-03T20:51:15.233Z,9.60
2023-02-03T20:53:44.278Z,10.80
2023-02-03T20:56:18.093Z,8.90
2023-02-03T20:58:46.804Z,9.70
2023-02-03T21:01:20.771Z,9.30
2023-02-03T21:04:06.910Z,9.10
2023-02-03T21:06:35.673Z,9.70
2023-02-03T21:09:15.179Z,10.70
2023-02-03T21:11:43.347Z,9.20
2023-02-03T21:14:23.332Z,9.20
2023-02-03T21:16:51.504Z,9.90
2023-02-03T21:19:29.171Z,9.30
2023-02-03T21:21:57.054Z,9.30
2023-02-03T21:24:31.654Z,9.60
2023-02-03T21:27:01.005Z,9.40
2023-02-03T21:29:42.930Z,9.50
2023-02-03T21:32:14.331Z,9.50
2023-02-03T21:34:46.351Z,10.20
2023-02-03T21:37:37.082Z,10.00
2023-02-03T21:40:26.099Z,10.10
2023-02-03T21:42:55.287Z,9.50
2023-02-03T21:45:24.282Z,9.90
2023-02-03T21:47:53.309Z,9.40
2023-02-03T21:50:31.665Z,9.40
2023-02-03T21:53:05.468Z,9.40
2023-02-03T21:55:32.880Z,10.70
2023-02-03T21:58:25.924Z,9.40
2023-02-03T22:00:55.733Z,9.30
2023-02-03T22:03:35.469Z,10.00
2023-02-03T22:06:09.243Z,9.60
2023-02-03T22:08:41.774Z,9.30
2023-02-03T22:11:09.814Z,9.30
2023-02-03T22:13:37.439Z,10.30
2023-02-03T22:16:05.164Z,10.30
2023-02-03T22:18:33.080Z,9.30
2023-02-03T22:21:00.857Z,9.30
2023-02-03T22:23:28.352Z,9.20
2023-02-03T22:25:55.958Z,10.00
2023-02-03T22:28:23.569Z,9.20
2023-02-03T22:30:51.130Z,9.20
2023-02-03T22:33:19.067Z,10.30
2023-02-03T22:35:46.595Z,8.80
2023-02-03T22:38:14.028Z,9.10
2023-02-03T22:40:41.512Z,9.10
2023-02-03T22:43:08.920Z,9.20
2023-02-03T22:45:36.420Z,9.10
2023-02-03T22:48:09.450Z,9.40
2023-02-03T22:50:37.116Z,9.10
2023-02-03T22:53:05.107Z,9.10
2023-02-03T22:55:38.405Z,9.10
2023-02-03T22:58:07.277Z,8.90
2023-02-03T23:00:35.594Z,9.10
2023-02-03T23:03:04.147Z,10.20
2023-02-03T23:05:31.940Z,9.30
2023-02-03T23:08:00.144Z,10.40
2023-02-03T23:10:31.979Z,9.10
2023-02-03T23:13:03.103Z,9.80
2023-02-03T23:15:30.694Z,9.90
2023-02-03T23:17:58.458Z,10.10
2023-02-03T23:20:25.978Z,9.20
2023-02-03T23:22:53.742Z,9.60
2023-02-03T23:25:21.150Z,10.10
2023-02-03T23:27:48.660Z,10.10
2023-02-03T23:30:17.758Z,9.20
2023-02-03T23:32:45.182Z,9.20
2023-02-03T23:35:31.766Z,9.90
2023-02-03T23:37:59.190Z,9.20
2023-02-03T23:40:26.638Z,9.20
2023-02-03T23:42:54.308Z,9.20
2023-02-03T23:45:21.713Z,8.40
2023-02-03T23:47:49.183Z,9.70
2023-02-03T23:50:18.830Z,9.20
2023-02-03T23:52:46.934Z,9.20
2023-02-03T23:55:17.889Z,10.30
2023-02-03T23:57:45.917Z,8.70
